West Alexander, Pennsylvania
Current Conditions -  °F | °C
As of 4:10 PM on Tuesday 21 Oct 2014 (Local Time) from KHLG Reporting Station
Light Rain Light Rain  
Wind Chill: 44°   Ceiling: 4600
Heat Index: 49°   Visibility: 8mi
Dew Point: 46°   Wind: 13mph
Humidity: 90%   Direction: 330°NNW
Pressure: 29.93"   Gusts: NA
Location:  40.11°N, 80.51°W
Report Text: KHLG 212010Z 33011KT 8SM -RA FEW007 BKN046 OVC055 09/08 A2993 RMK AO2 P0001 T00940078
Loading
Personal Weather Stations






























Interactive Weather Map
Tropical Storm Tracking
New forecast layout! Learn more

10-Day Weather Forecast

Advertisements
Track Severe Weather on mobile